Terminal Aerodrome Forecast
Issued by NWS Albuquerque, NM

Current Version | Previous Version | Text Only | Print | Product List | Glossary On
Versions: 1 2 3 4 5 6 7 8 9 10 11 12 13 14 15 16 17 18 19 20
000
FTUS45 KABQ 010035 AAB
TAFABQ
TAF AMD
KABQ 010035Z 0101/0124 22015G25KT P6SM VCSH BKN060 BKN090
      TEMPO 0101/0103 VRB25G40KT -RA OVC050
     FM010300 08011KT P6SM VCSH OVC060
     FM010400 09030G45KT P6SM OVC050
     FM010600 09042G52KT 4SM BLDU OVC040
     FM010900 09048G60KT 2SM BLDU OVC030
     FM011500 09038G45KT 5SM BLDU OVC025
     FM011800 10025G35KT P6SM VCSH BKN040 BKN070=

USA.gov is the U.S. government's official web portal to all federal, state and local government web resources and services.